F/V Barracuda II — FMIF — position and weather

sailwx.info

Track history (hours):
 
Tides and Currents Weather Stations Pressure Air Temp Water Temp Dewpoint Dewpoint Depression Visibility Wind Speed Wind Dir Waves Ship Positions

F/V Barracuda II

Last reported at 2016-Feb-05 15:33 UTC. Time now 2016-Feb-07 13:00 UTC.
Position N 43°30' E 004°06'.

Length 23 m.

Type: Fishing. MMSI: 228236800.

Date/timePositionNaut miles runAvg speedWind from/ knotsBaromVisibWave heightAir tempDewpointWater temp
2016-Feb-05 15:33N 43°30' E 004°06'8 7.7
2016-Feb-05 14:33N 43°23' E 004°10'4 3.9
2016-Feb-05 13:33N 43°20' E 004°14'4 3.8
2016-Feb-05 12:33N 43°19' E 004°18'4 3.9
2016-Feb-05 11:33N 43°17' E 004°23'3 2.8
2016-Feb-05 10:33N 43°17' E 004°27'0 0.0
2016-Feb-03 09:19N 43°17' E 004°26'3 3.8
2016-Feb-03 08:33N 43°16' E 004°30'4 3.7
2016-Feb-03 07:33N 43°17' E 004°35'18 1.0
2016-Feb-02 14:13N 43°22' E 004°11'2 3.8
2016-Feb-02 13:33N 43°20' E 004°14'4 3.9
2016-Feb-02 12:33N 43°18' E 004°18'4 3.9
2016-Feb-02 11:33N 43°17' E 004°23'3 3.4
2016-Feb-02 10:33N 43°14' E 004°26'4 3.7
2016-Feb-02 09:33N 43°12' E 004°30'3 2.8
2016-Feb-02 08:33N 43°14' E 004°33'3 3.5
2016-Feb-02 07:33N 43°16' E 004°29'3 3.3
2016-Feb-02 06:33N 43°17' E 004°24'6 4.0
2016-Feb-02 05:03N 43°19' E 004°17'2 3.8
2016-Feb-02 04:33N 43°20' E 004°14'4 3.8
2016-Feb-02 03:33N 43°22' E 004°10'  
2016-Jan-29 13:32N 43°24' E 004°10'4 3.8
2016-Jan-29 12:33N 43°21' E 004°13'4 3.7
2016-Jan-29 11:33N 43°19' E 004°18'4 3.8
2016-Jan-29 10:34N 43°18' E 004°23'3 3.3
2016-Jan-29 09:33N 43°17' E 004°27'4 3.5
2016-Jan-29 08:33N 43°18' E 004°22'4 3.9
2016-Jan-29 07:33N 43°19' E 004°17'4 3.8
2016-Jan-29 06:33N 43°21' E 004°13'6 0.4
2016-Jan-28 15:18N 43°26' E 004°11'4 5.8
2016-Jan-28 14:33N 43°22' E 004°12'4 3.7
2016-Jan-28 13:33N 43°19' E 004°16'4 3.8
2016-Jan-28 12:33N 43°18' E 004°21'4 3.8
2016-Jan-28 11:33N 43°16' E 004°25'5 4.4
2016-Jan-28 10:30N 43°12' E 004°29'20 1.0
2016-Jan-27 15:14N 43°26' E 004°09'5 6.9
2016-Jan-27 14:30N 43°21' E 004°12'4 3.7
2016-Jan-27 13:33N 43°19' E 004°15'4 3.8
2016-Jan-27 12:33N 43°17' E 004°20'4 3.8
2016-Jan-27 11:33N 43°16' E 004°24'11 3.5
2016-Jan-27 08:33N 43°12' E 004°38'  
Track history (hours):
 
Tides and Currents Weather Stations Pressure Air Temp Water Temp Dewpoint Dewpoint Depression Visibility Wind Speed Wind Dir Waves Ship Positions

F/V Barracuda II

Last reported at 2016-Feb-05 15:33 UTC. Time now 2016-Feb-07 13:00 UTC.
Position N 43°30' E 004°06'.

Length 23 m.

Type: Fishing. MMSI: 228236800.

Date/timePositionNaut miles runAvg speedWind from/ knotsBaromVisibWave heightAir tempDewpointWater temp
2016-Feb-05 15:33N 43°30' E 004°06'8 7.7
2016-Feb-05 14:33N 43°23' E 004°10'4 3.9
2016-Feb-05 13:33N 43°20' E 004°14'4 3.8
2016-Feb-05 12:33N 43°19' E 004°18'4 3.9
2016-Feb-05 11:33N 43°17' E 004°23'3 2.8
2016-Feb-05 10:33N 43°17' E 004°27'0 0.0
2016-Feb-03 09:19N 43°17' E 004°26'3 3.8
2016-Feb-03 08:33N 43°16' E 004°30'4 3.7
2016-Feb-03 07:33N 43°17' E 004°35'18 1.0
2016-Feb-02 14:13N 43°22' E 004°11'2 3.8
2016-Feb-02 13:33N 43°20' E 004°14'4 3.9
2016-Feb-02 12:33N 43°18' E 004°18'4 3.9
2016-Feb-02 11:33N 43°17' E 004°23'3 3.4
2016-Feb-02 10:33N 43°14' E 004°26'4 3.7
2016-Feb-02 09:33N 43°12' E 004°30'3 2.8
2016-Feb-02 08:33N 43°14' E 004°33'3 3.5
2016-Feb-02 07:33N 43°16' E 004°29'3 3.3
2016-Feb-02 06:33N 43°17' E 004°24'6 4.0
2016-Feb-02 05:03N 43°19' E 004°17'2 3.8
2016-Feb-02 04:33N 43°20' E 004°14'4 3.8
2016-Feb-02 03:33N 43°22' E 004°10'  
2016-Jan-29 13:32N 43°24' E 004°10'4 3.8
2016-Jan-29 12:33N 43°21' E 004°13'4 3.7
2016-Jan-29 11:33N 43°19' E 004°18'4 3.8
2016-Jan-29 10:34N 43°18' E 004°23'3 3.3
2016-Jan-29 09:33N 43°17' E 004°27'4 3.5
2016-Jan-29 08:33N 43°18' E 004°22'4 3.9
2016-Jan-29 07:33N 43°19' E 004°17'4 3.8
2016-Jan-29 06:33N 43°21' E 004°13'6 0.4
2016-Jan-28 15:18N 43°26' E 004°11'4 5.8
2016-Jan-28 14:33N 43°22' E 004°12'4 3.7
2016-Jan-28 13:33N 43°19' E 004°16'4 3.8
2016-Jan-28 12:33N 43°18' E 004°21'4 3.8
2016-Jan-28 11:33N 43°16' E 004°25'5 4.4
2016-Jan-28 10:30N 43°12' E 004°29'20 1.0
2016-Jan-27 15:14N 43°26' E 004°09'5 6.9
2016-Jan-27 14:30N 43°21' E 004°12'4 3.7
2016-Jan-27 13:33N 43°19' E 004°15'4 3.8
2016-Jan-27 12:33N 43°17' E 004°20'4 3.8
2016-Jan-27 11:33N 43°16' E 004°24'11 3.5
2016-Jan-27 08:33N 43°12' E 004°38'  

Dump ship's entire track history